Time;durP1;ratioP1;P1;durP2;ratioP2;P2;SDS_P1;SDS_P2;PMS_P1;PMS_P2;Temp;Humidity;BMP_temperature;BMP_pressure;BME280_temperature;BME280_humidity;BME280_pressure;Samples;Min_cycle;Max_cycle;Signal;HPM_P1;HPM_P2
2022/09/18 00:01:25;;;;;;;5.40;1.95;;;;;;;18.59;84.05;93606.69;5051958;28;20171;-76
2022/09/18 00:03:53;;;;;;;4.82;2.05;;;;;;;18.43;84.25;93615.94;5051786;28;20167;-76
2022/09/18 00:06:22;;;;;;;2.20;2.00;;;;;;;18.33;84.42;93630.25;5052034;28;20167;-76
2022/09/18 00:08:52;;;;;;;1.52;1.38;;;;;;;18.16;84.01;93637.94;5051761;28;20553;-76
2022/09/18 00:11:21;;;;;;;2.13;1.70;;;;;;;17.96;84.28;93647.00;5051615;28;20260;-76
2022/09/18 00:13:47;;;;;;;2.03;1.80;;;;;;;17.76;85.12;93638.44;5051546;28;20175;-75
2022/09/18 00:16:15;;;;;;;1.55;1.35;;;;;;;17.49;84.71;93644.31;5050658;28;20250;-75
2022/09/18 00:18:41;;;;;;;1.08;1.02;;;;;;;17.19;84.49;93653.44;5051357;28;20199;-75
2022/09/18 00:21:12;;;;;;;2.78;1.45;;;;;;;16.90;83.65;93672.81;5051475;28;20236;-76
2022/09/18 00:23:39;;;;;;;1.27;1.10;;;;;;;16.37;83.77;93679.81;5051336;28;20539;-75
2022/09/18 00:26:05;;;;;;;3.08;1.60;;;;;;;16.02;84.69;93682.66;5051455;28;20174;-75
2022/09/18 00:28:32;;;;;;;3.93;1.40;;;;;;;15.88;85.90;93682.47;5051402;28;20326;-75
2022/09/18 00:31:12;;;;;;;1.67;1.58;;;;;;;15.73;85.00;93688.66;5051203;28;20661;-76
2022/09/18 00:33:38;;;;;;;2.10;1.40;;;;;;;15.59;84.93;93692.13;5051521;28;20244;-76
2022/09/18 00:36:06;;;;;;;1.60;0.83;;;;;;;15.35;83.17;93705.16;5051613;28;20186;-75
2022/09/18 00:38:33;;;;;;;0.77;0.77;;;;;;;14.97;83.79;93656.97;5051186;28;20203;-75
2022/09/18 00:41:00;;;;;;;1.77;1.00;;;;;;;15.15;83.48;93697.22;5051410;28;20744;-75
2022/09/18 00:43:29;;;;;;;1.17;0.90;;;;;;;15.12;82.61;93716.34;5051159;28;20634;-76
2022/09/18 00:46:04;;;;;;;0.90;0.90;;;;;;;15.08;83.40;93731.97;5051189;28;20182;-76
2022/09/18 00:48:52;;;;;;;2.70;0.60;;;;;;;15.04;83.11;93736.22;5066362;28;20177;-76
2022/09/18 00:51:18;;;;;;;0.87;0.77;;;;;;;15.03;82.82;93750.53;5050906;28;20174;-76
2022/09/18 00:53:54;;;;;;;0.50;0.50;;;;;;;15.03;82.58;93766.44;5051070;28;20175;-76
2022/09/18 00:56:20;;;;;;;1.97;0.50;;;;;;;14.60;83.45;93741.22;5051185;28;20659;-76
2022/09/18 00:58:46;;;;;;;1.27;1.00;;;;;;;14.46;83.73;93779.84;5032880;28;20195;-76
2022/09/18 01:01:11;;;;;;;7.30;0.77;;;;;;;14.39;84.38;93769.50;5050717;28;20182;-76
2022/09/18 01:03:37;;;;;;;3.63;0.77;;;;;;;14.40;84.15;93796.78;5050765;28;20170;-76
2022/09/18 01:06:03;;;;;;;1.00;0.57;;;;;;;14.38;84.54;93788.25;5050908;28;20664;-76
2022/09/18 01:08:37;;;;;;;1.00;0.60;;;;;;;14.31;84.39;93801.75;5050705;28;20185;-76
2022/09/18 01:11:21;;;;;;;0.40;0.40;;;;;;;14.28;84.22;93818.16;5050766;28;20521;-76
2022/09/18 01:14:11;;;;;;;0.87;0.67;;;;;;;14.23;84.50;93847.25;5032721;28;20264;-76
2022/09/18 01:16:44;;;;;;;1.10;0.57;;;;;;;13.97;84.00;93847.13;5049255;28;20906;-76
2022/09/18 01:19:46;;;;;;;0.33;0.33;;;;;;;13.76;84.64;93834.03;5050528;28;20198;-76
2022/09/18 01:22:41;;;;;;;0.50;0.50;;;;;;;13.55;85.37;93862.19;5050490;28;20166;-76
2022/09/18 01:25:42;;;;;;;2.10;0.60;;;;;;;13.37;84.97;93876.59;5032498;28;20213;-76
2022/09/18 01:28:20;;;;;;;3.60;0.50;;;;;;;13.23;86.67;93896.56;4992114;28;20268;-76
2022/09/18 01:30:49;;;;;;;0.40;0.40;;;;;;;13.05;86.25;93878.41;5046770;28;20182;-76
2022/09/18 01:33:45;;;;;;;0.60;0.60;;;;;;;12.92;85.61;93908.63;5054383;28;20175;-76
2022/09/18 01:36:14;;;;;;;0.40;0.40;;;;;;;12.92;86.66;93915.75;5054500;28;20714;-76
2022/09/18 01:39:19;;;;;;;0.53;0.30;;;;;;;12.70;87.09;93931.63;5054095;28;20203;-75
2022/09/18 01:41:50;;;;;;;0.40;0.40;;;;;;;12.74;88.31;93938.00;4992628;28;20224;-76
2022/09/18 01:44:20;;;;;;;0.60;0.60;;;;;;;12.75;87.43;93968.66;5027443;28;20292;-76
2022/09/18 01:46:48;;;;;;;0.40;0.40;;;;;;;12.54;88.14;93961.53;5054374;28;20937;-76
2022/09/18 01:49:20;;;;;;;0.50;0.50;;;;;;;12.59;88.17;93972.16;5054369;28;20167;-76
2022/09/18 01:51:51;;;;;;;0.50;0.50;;;;;;;12.31;87.99;93975.72;5053837;28;20198;-76
2022/09/18 01:54:23;;;;;;;0.80;0.60;;;;;;;12.02;87.66;93928.38;5053886;28;20178;-75
2022/09/18 01:57:06;;;;;;;0.40;0.40;;;;;;;12.43;87.98;94001.00;5054175;28;20194;-76
2022/09/18 01:59:39;;;;;;;0.40;0.40;;;;;;;12.40;88.32;93993.56;5054119;28;20195;-76
2022/09/18 02:02:12;;;;;;;0.60;0.47;;;;;;;12.41;89.02;93994.34;5054098;28;20182;-76
2022/09/18 02:04:41;;;;;;;0.40;0.40;;;;;;;12.27;86.91;93987.84;5054110;28;20225;-76
2022/09/18 02:07:18;;;;;;;0.40;0.40;;;;;;;12.32;87.39;94015.09;5054020;28;20557;-76
2022/09/18 02:09:43;;;;;;;1.27;0.50;;;;;;;12.38;88.38;94032.56;5053880;28;20170;-76
2022/09/18 02:12:14;;;;;;;0.40;0.40;;;;;;;12.48;87.79;94045.94;5053868;28;20183;-76
2022/09/18 02:14:45;;;;;;;0.97;0.90;;;;;;;12.25;85.14;94032.13;5053821;28;20171;-76
2022/09/18 02:17:17;;;;;;;0.50;0.50;;;;;;;11.99;85.93;94050.19;5053790;28;20225;-76
2022/09/18 02:19:55;;;;;;;0.53;0.53;;;;;;;11.99;87.43;94041.47;5053782;28;20195;-75
2022/09/18 02:22:23;;;;;;;0.60;0.60;;;;;;;11.96;86.71;94057.78;5053543;28;20155;-75
2022/09/18 02:24:52;;;;;;;0.57;0.57;;;;;;;11.99;87.53;94047.56;5053286;28;20171;-75
2022/09/18 02:27:20;;;;;;;1.10;1.00;;;;;;;12.26;86.29;94076.75;5053351;28;20646;-75
2022/09/18 02:29:47;;;;;;;0.60;0.60;;;;;;;12.35;85.84;94077.94;5053188;28;20164;-75
2022/09/18 02:32:13;;;;;;;0.60;0.60;;;;;;;12.32;84.69;94102.16;5053371;28;20780;-75
2022/09/18 02:34:39;;;;;;;1.03;0.93;;;;;;;12.32;83.94;94111.91;5035239;28;20189;-76
2022/09/18 02:37:48;;;;;;;0.50;0.50;;;;;;;12.36;84.92;94124.41;5053306;28;20175;-75
2022/09/18 02:40:19;;;;;;;0.40;0.40;;;;;;;12.35;84.52;94146.56;5044655;28;20638;-75
2022/09/18 02:43:07;;;;;;;0.60;0.60;;;;;;;12.20;83.57;94143.66;5052939;28;20223;-75
2022/09/18 02:45:53;;;;;;;0.60;0.60;;;;;;;11.98;82.72;94142.75;5035197;28;20277;-76
2022/09/18 02:48:30;;;;;;;1.40;0.77;;;;;;;11.97;83.69;94141.13;5053046;28;20167;-75
2022/09/18 02:51:24;;;;;;;1.13;0.60;;;;;;;11.62;84.86;94143.88;5052811;28;20220;-75
2022/09/18 02:53:59;;;;;;;2.93;1.07;;;;;;;11.70;86.16;94149.59;5052745;28;20649;-75
2022/09/18 02:56:36;;;;;;;1.13;1.03;;;;;;;11.71;84.33;94156.47;5053149;28;20916;-75
2022/09/18 02:59:11;;;;;;;0.90;0.90;;;;;;;11.86;85.18;94155.97;5052733;28;20202;-75
2022/09/18 03:01:40;;;;;;;1.07;1.00;;;;;;;11.82;82.41;94144.31;5052661;28;20228;-76
2022/09/18 03:04:14;;;;;;;0.90;0.90;;;;;;;11.89;83.58;94146.78;5052572;28;20225;-75
2022/09/18 03:06:40;;;;;;;1.20;1.10;;;;;;;11.82;82.47;94159.31;5052460;28;20202;-75
2022/09/18 03:09:06;;;;;;;1.10;1.00;;;;;;;11.53;83.17;94161.91;5052603;28;20194;-76
2022/09/18 03:11:31;;;;;;;1.17;1.10;;;;;;;11.44;83.71;94170.41;5052541;28;20159;-76
2022/09/18 03:13:56;;;;;;;0.97;0.97;;;;;;;11.35;83.61;94170.75;5034571;28;20171;-76
2022/09/18 03:16:22;;;;;;;1.00;1.00;;;;;;;11.41;83.69;94165.63;5052497;28;21048;-76
2022/09/18 03:18:47;;;;;;;2.30;1.33;;;;;;;11.42;83.25;94177.72;5052346;28;20195;-76
2022/09/18 03:21:12;;;;;;;0.90;0.90;;;;;;;11.43;83.65;94190.69;5052313;28;20309;-76
2022/09/18 03:23:38;;;;;;;0.90;0.90;;;;;;;11.39;83.83;94192.19;5052061;28;20171;-76
2022/09/18 03:26:03;;;;;;;1.53;1.10;;;;;;;11.18;84.33;94138.25;5052066;28;20182;-76
2022/09/18 03:28:32;;;;;;;1.60;1.10;;;;;;;11.63;83.42;94199.00;5034159;28;20171;-75
2022/09/18 03:30:57;;;;;;;0.93;0.93;;;;;;;11.72;82.95;94205.53;5052005;28;20171;-76
2022/09/18 03:33:23;;;;;;;0.90;0.90;;;;;;;11.65;82.23;94196.16;5051987;28;20673;-76
2022/09/18 03:35:48;;;;;;;1.10;1.00;;;;;;;11.79;83.01;94200.16;5051877;28;20181;-75
2022/09/18 03:38:14;;;;;;;0.90;0.90;;;;;;;11.78;81.69;94201.16;5051606;28;20571;-76
2022/09/18 03:40:44;;;;;;;1.00;1.00;;;;;;;11.73;80.60;94196.59;5034051;28;20237;-76
2022/09/18 03:43:10;;;;;;;1.13;1.07;;;;;;;11.82;80.27;94206.78;5051558;28;20223;-76
2022/09/18 03:45:35;;;;;;;1.30;1.20;;;;;;;11.78;80.36;94214.34;5051679;28;20174;-76
2022/09/18 03:48:01;;;;;;;1.27;1.17;;;;;;;11.74;80.96;94202.66;5051750;28;20163;-76
2022/09/18 03:50:27;;;;;;;1.10;1.07;;;;;;;11.68;79.47;94206.22;5051518;28;20199;-75
2022/09/18 03:52:53;;;;;;;2.20;1.30;;;;;;;11.71;79.48;94211.81;5051607;28;20198;-76
2022/09/18 03:55:18;;;;;;;1.30;1.20;;;;;;;11.79;79.60;94229.16;5051704;28;20638;-75
2022/09/18 03:57:45;;;;;;;1.00;1.00;;;;;;;11.75;79.85;94238.56;5051458;28;20187;-75
2022/09/18 04:00:11;;;;;;;1.00;1.00;;;;;;;11.65;80.07;94247.03;5051445;28;20173;-75
2022/09/18 04:02:36;;;;;;;1.10;1.00;;;;;;;11.55;80.10;94244.19;5051526;28;20608;-74
2022/09/18 04:05:03;;;;;;;1.10;1.10;;;;;;;11.46;80.85;94253.47;5051548;28;20183;-75
2022/09/18 04:07:28;;;;;;;1.07;1.07;;;;;;;11.49;80.73;94258.31;5051618;28;20178;-74
2022/09/18 04:09:54;;;;;;;1.27;1.20;;;;;;;11.34;80.40;94258.75;5051357;28;20214;-74
2022/09/18 04:12:19;;;;;;;1.40;1.30;;;;;;;11.45;81.80;94265.03;5051425;28;20172;-74
2022/09/18 04:14:45;;;;;;;1.50;1.40;;;;;;;11.50;80.44;94269.66;5051045;28;20171;-74
2022/09/18 04:17:10;;;;;;;1.40;1.30;;;;;;;11.49;80.17;94260.94;5051082;28;20178;-74
2022/09/18 04:19:35;;;;;;;1.40;1.30;;;;;;;11.57;80.42;94294.03;5051247;28;20159;-74
2022/09/18 04:22:02;;;;;;;1.50;1.40;;;;;;;11.57;80.96;94299.31;5051222;28;20254;-75
2022/09/18 04:24:28;;;;;;;1.30;1.20;;;;;;;11.63;80.55;94299.19;5051146;28;20702;-76
2022/09/18 04:26:53;;;;;;;1.50;1.40;;;;;;;11.73;79.78;94288.88;5051304;28;20254;-76
2022/09/18 04:29:19;;;;;;;1.30;1.20;;;;;;;11.72;79.29;94279.34;5051032;28;20191;-76
2022/09/18 04:31:44;;;;;;;1.60;1.37;;;;;;;11.60;79.72;94277.75;5033453;28;20270;-76
2022/09/18 04:34:10;;;;;;;1.77;1.67;;;;;;;11.84;80.81;94303.09;5050662;28;20187;-76
2022/09/18 04:36:35;;;;;;;1.93;1.43;;;;;;;11.84;81.35;94302.31;5050855;28;20178;-75
2022/09/18 04:39:00;;;;;;;1.67;1.57;;;;;;;11.79;81.35;94294.25;5050895;28;20186;-75
2022/09/18 04:41:26;;;;;;;1.40;1.30;;;;;;;11.70;81.89;94306.97;5050934;28;20772;-75
2022/09/18 04:43:51;;;;;;;1.50;1.40;;;;;;;11.78;82.22;94321.66;5050630;28;20219;-75
2022/09/18 04:46:17;;;;;;;1.27;1.20;;;;;;;11.60;81.95;94322.56;5050574;28;20681;-76
2022/09/18 04:48:46;;;;;;;1.07;1.07;;;;;;;11.64;83.41;94334.25;5050530;28;20195;-75
2022/09/18 04:51:12;;;;;;;1.47;1.37;;;;;;;11.66;83.61;94335.66;5050589;28;20171;-75
2022/09/18 04:53:38;;;;;;;1.33;1.23;;;;;;;11.66;82.83;94340.13;5050410;28;20296;-75
2022/09/18 04:56:04;;;;;;;1.23;1.13;;;;;;;11.52;83.05;94344.81;5050404;28;20287;-75
2022/09/18 04:58:29;;;;;;;1.20;1.10;;;;;;;11.37;83.78;94326.00;5066499;28;20181;-75
2022/09/18 05:00:55;;;;;;;1.30;1.20;;;;;;;11.53;84.36;94348.25;5051279;28;20578;-75
2022/09/18 05:03:21;;;;;;;1.50;1.40;;;;;;;11.56;83.75;94367.06;5032594;28;20167;-75
2022/09/18 05:05:47;;;;;;;1.20;1.10;;;;;;;11.58;83.76;94370.25;5050449;28;20171;-75
2022/09/18 05:08:13;;;;;;;1.10;1.10;;;;;;;11.46;84.02;94342.28;5059257;28;20252;-76
2022/09/18 05:10:38;;;;;;;2.40;1.20;;;;;;;11.67;82.90;94376.81;5076027;28;20191;-76
2022/09/18 05:13:04;;;;;;;1.40;1.30;;;;;;;11.64;82.62;94382.53;5050262;28;20237;-74
2022/09/18 05:15:30;;;;;;;1.60;1.50;;;;;;;11.60;82.46;94399.00;5032579;28;20171;-75
2022/09/18 05:18:00;;;;;;;1.40;1.30;;;;;;;11.57;83.40;94389.75;5050490;28;20175;-75
2022/09/18 05:20:27;;;;;;;0.93;0.90;;;;;;;11.67;82.73;94397.91;5050640;28;20167;-75
2022/09/18 05:22:52;;;;;;;1.50;1.40;;;;;;;11.53;81.02;94393.03;5050673;28;20171;-75
2022/09/18 05:25:19;;;;;;;1.37;1.27;;;;;;;11.54;81.82;94411.28;5050416;28;20174;-75
2022/09/18 05:27:52;;;;;;;1.50;1.23;;;;;;;11.63;82.46;94415.19;5050315;28;20183;-75
2022/09/18 05:30:19;;;;;;;2.80;1.47;;;;;;;11.63;82.50;94394.09;5050217;28;20270;-75
2022/09/18 05:32:55;;;;;;;2.00;1.40;;;;;;;11.45;79.34;94399.47;5050203;28;20275;-75
2022/09/18 05:35:23;;;;;;;1.57;1.47;;;;;;;11.48;81.08;94393.75;5050225;28;20562;-75
2022/09/18 05:37:51;;;;;;;1.80;1.50;;;;;;;11.63;79.85;94430.19;5050181;28;20172;-75
2022/09/18 05:40:19;;;;;;;1.93;1.77;;;;;;;11.61;79.87;94414.59;5050411;28;20192;-75
2022/09/18 05:42:47;;;;;;;1.80;1.70;;;;;;;11.73;79.30;94409.34;5065593;28;20227;-75
2022/09/18 05:45:14;;;;;;;2.27;1.60;;;;;;;11.71;79.48;94417.47;5049877;28;20167;-75
2022/09/18 05:47:40;;;;;;;4.33;1.30;;;;;;;11.72;79.57;94405.91;5041486;28;20179;-75
2022/09/18 05:50:07;;;;;;;1.50;1.40;;;;;;;11.82;79.72;94428.31;5062825;28;20307;-76
2022/09/18 05:52:32;;;;;;;1.90;1.70;;;;;;;11.79;79.28;94431.38;5066213;28;20190;-75
2022/09/18 05:54:58;;;;;;;1.60;1.50;;;;;;;11.67;79.66;94424.25;5067725;28;20599;-76
2022/09/18 05:57:23;;;;;;;1.67;1.57;;;;;;;11.83;79.73;94436.00;5069722;28;20175;-76
2022/09/18 05:59:49;;;;;;;1.87;1.60;;;;;;;11.83;79.15;94430.72;5069152;28;20206;-76
2022/09/18 06:02:14;;;;;;;1.60;1.50;;;;;;;11.78;79.61;94411.31;5086497;28;20239;-76
2022/09/18 06:04:40;;;;;;;1.50;1.40;;;;;;;12.01;78.75;94435.06;5090471;28;20161;-76
2022/09/18 06:07:05;;;;;;;1.70;1.40;;;;;;;12.07;78.88;94442.88;5089898;28;20174;-76
2022/09/18 06:09:31;;;;;;;1.47;1.37;;;;;;;12.10;77.51;94444.25;5071743;28;20602;-76
2022/09/18 06:11:56;;;;;;;1.60;1.30;;;;;;;11.97;77.99;94426.00;5089412;28;20174;-76
2022/09/18 06:14:22;;;;;;;1.30;1.20;;;;;;;11.90;76.99;94441.94;5091213;28;20685;-77
2022/09/18 06:16:48;;;;;;;2.63;1.20;;;;;;;11.64;77.16;94419.44;5093336;28;20532;-77
2022/09/18 06:19:13;;;;;;;2.43;1.40;;;;;;;11.88;78.51;94462.47;5093175;28;20170;-77
2022/09/18 06:21:40;;;;;;;3.73;1.30;;;;;;;11.92;78.04;94468.09;5093298;28;20165;-76
2022/09/18 06:24:05;;;;;;;1.83;1.40;;;;;;;11.90;78.60;94470.97;5092818;28;20173;-76
2022/09/18 06:26:31;;;;;;;2.87;1.20;;;;;;;11.84;78.64;94476.34;5093569;28;20170;-76
2022/09/18 06:28:56;;;;;;;1.97;1.33;;;;;;;11.81;79.01;94468.88;5093475;28;20198;-76
2022/09/18 06:31:22;;;;;;;0.80;0.80;;;;;;;11.86;78.92;94483.00;5093650;28;20676;-76
2022/09/18 06:33:48;;;;;;;2.43;1.30;;;;;;;11.97;78.61;94490.13;5093545;28;20660;-76
2022/09/18 06:36:13;;;;;;;2.30;1.40;;;;;;;11.95;78.85;94470.28;5084095;28;20186;-76
2022/09/18 06:38:39;;;;;;;1.70;1.20;;;;;;;12.06;78.18;94472.91;5073353;28;20167;-76
2022/09/18 06:41:05;;;;;;;3.10;1.97;;;;;;;12.26;77.66;94493.69;5073184;28;20179;-76
2022/09/18 06:43:30;;;;;;;2.33;1.60;;;;;;;12.29;76.98;94495.84;5072976;28;20294;-76
2022/09/18 06:45:56;;;;;;;1.13;1.03;;;;;;;12.35;77.18;94500.22;5073164;28;20178;-76
2022/09/18 06:48:28;;;;;;;1.53;1.10;;;;;;;12.40;77.75;94510.09;5072899;28;20247;-76
2022/09/18 06:50:55;;;;;;;1.23;1.10;;;;;;;12.36;77.40;94488.66;5072870;28;20166;-76
2022/09/18 06:53:21;;;;;;;0.90;0.90;;;;;;;12.56;77.14;94504.09;5072450;28;20230;-76
2022/09/18 06:55:47;;;;;;;1.73;1.30;;;;;;;12.61;77.04;94508.72;5072167;28;20259;-76
2022/09/18 06:58:16;;;;;;;0.90;0.90;;;;;;;12.77;76.50;94505.34;5072059;28;20185;-76
2022/09/18 07:00:43;;;;;;;1.67;1.10;;;;;;;12.81;75.63;94512.56;5072452;28;20169;-76
2022/09/18 07:03:09;;;;;;;5.73;1.77;;;;;;;12.76;74.56;94515.13;5072480;28;20262;-76
2022/09/18 07:05:39;;;;;;;2.70;1.10;;;;;;;12.52;73.71;94512.72;5072035;28;20559;-75
2022/09/18 07:08:05;;;;;;;1.53;1.30;;;;;;;12.65;74.09;94523.03;5070686;28;20170;-76
2022/09/18 07:10:30;;;;;;;2.30;1.37;;;;;;;12.81;72.45;94519.69;5071328;28;20641;-75
2022/09/18 07:12:57;;;;;;;1.57;1.17;;;;;;;12.94;72.63;94523.91;5070913;28;20225;-75
2022/09/18 07:15:22;;;;;;;1.10;1.00;;;;;;;13.02;72.12;94528.84;5070696;28;20181;-75
2022/09/18 07:17:48;;;;;;;1.20;0.90;;;;;;;13.13;72.00;94531.50;5053209;28;20174;-75
2022/09/18 07:20:13;;;;;;;2.13;0.97;;;;;;;13.23;71.26;94530.09;5071166;28;20254;-76
2022/09/18 07:22:40;;;;;;;12.33;6.57;;;;;;;13.36;71.43;94532.44;5071170;28;20175;-76
2022/09/18 07:25:07;;;;;;;1.63;1.17;;;;;;;13.48;70.96;94538.50;5070927;28;20181;-76
2022/09/18 07:27:32;;;;;;;0.93;0.80;;;;;;;13.61;70.67;94540.84;5072129;28;20224;-76
2022/09/18 07:29:58;;;;;;;2.00;1.33;;;;;;;13.54;69.76;94540.19;5072473;28;20244;-77
2022/09/18 07:32:24;;;;;;;1.43;1.30;;;;;;;13.66;70.83;94542.78;5061443;28;20182;-78
2022/09/18 07:34:50;;;;;;;1.70;1.60;;;;;;;13.78;70.16;94546.16;5052685;28;20195;-76
2022/09/18 07:37:16;;;;;;;1.50;1.40;;;;;;;13.82;70.05;94552.59;5052118;28;20207;-76
2022/09/18 07:39:42;;;;;;;1.50;1.40;;;;;;;13.66;70.41;94511.84;5068625;28;20261;-76
2022/09/18 07:42:09;;;;;;;1.50;1.30;;;;;;;13.92;67.99;94535.03;5054232;28;20553;-77
2022/09/18 07:44:34;;;;;;;1.37;1.10;;;;;;;14.03;67.62;94561.69;5071944;28;20314;-76
2022/09/18 07:47:00;;;;;;;2.23;1.43;;;;;;;13.85;67.03;94558.22;5070874;28;20649;-77
2022/09/18 07:49:26;;;;;;;1.30;1.20;;;;;;;13.74;67.10;94558.28;5047938;28;20241;-76
2022/09/18 07:51:51;;;;;;;2.97;1.47;;;;;;;13.75;67.17;94563.31;5059996;28;20179;-76
2022/09/18 07:54:16;;;;;;;1.10;1.03;;;;;;;13.85;68.96;94560.84;5056736;28;20190;-76
2022/09/18 07:56:42;;;;;;;1.43;1.10;;;;;;;13.91;67.12;94562.56;5055545;28;20326;-77
2022/09/18 07:59:08;;;;;;;0.90;0.90;;;;;;;13.79;67.81;94567.09;5058071;28;20170;-76
2022/09/18 08:01:34;;;;;;;1.33;1.13;;;;;;;13.85;67.75;94566.13;5064438;28;20235;-76
2022/09/18 08:04:01;;;;;;;2.30;1.00;;;;;;;13.80;67.34;94573.19;5058871;28;20183;-76
2022/09/18 08:06:27;;;;;;;1.57;1.30;;;;;;;13.80;67.73;94575.84;5055369;28;20694;-77
2022/09/18 08:08:52;;;;;;;1.33;1.20;;;;;;;14.00;68.44;94570.91;5060628;28;20205;-77
2022/09/18 08:11:19;;;;;;;2.10;2.00;;;;;;;14.10;66.65;94567.63;5060641;28;20662;-76
2022/09/18 08:13:47;;;;;;;1.30;1.20;;;;;;;14.26;65.75;94558.91;5053089;28;20182;-77
2022/09/18 08:16:13;;;;;;;1.03;0.97;;;;;;;14.76;66.25;94576.63;5053849;28;20186;-78
2022/09/18 08:18:38;;;;;;;1.63;1.50;;;;;;;15.02;66.68;94560.84;5060629;28;20174;-76
2022/09/18 08:21:05;;;;;;;2.30;1.40;;;;;;;15.33;65.64;94546.09;5061997;28;20544;-78
2022/09/18 08:23:30;;;;;;;3.93;1.20;;;;;;;15.89;65.54;94554.69;5057669;28;20194;-77
2022/09/18 08:25:59;;;;;;;1.07;1.07;;;;;;;15.94;59.59;94561.91;5062400;28;20189;-78
2022/09/18 08:28:25;;;;;;;1.30;1.20;;;;;;;16.54;62.15;94559.75;5065001;28;20277;-78
2022/09/18 08:30:50;;;;;;;1.50;1.40;;;;;;;17.00;61.82;94564.59;5066502;28;20182;-78
2022/09/18 08:33:16;;;;;;;1.98;1.67;;;;;;;17.46;59.26;94552.34;5047002;28;20190;-77
2022/09/18 08:35:41;;;;;;;1.70;1.30;;;;;;;17.89;58.16;94569.78;5056498;28;20194;-74
2022/09/18 08:38:09;;;;;;;3.10;1.30;;;;;;;18.56;58.41;94572.25;5056871;28;20175;-76
2022/09/18 08:40:52;;;;;;;1.58;1.20;;;;;;;19.23;56.95;94569.25;5057192;28;20270;-76
2022/09/18 08:43:27;;;;;;;1.92;1.67;;;;;;;19.56;54.78;94572.34;5055874;28;20222;-76
2022/09/18 08:46:10;;;;;;;1.25;1.08;;;;;;;19.32;51.47;94560.69;5062691;28;20185;-76
2022/09/18 08:49:11;;;;;;;1.00;1.00;;;;;;;18.68;54.24;94569.38;5038438;28;20284;-75
2022/09/18 08:51:53;;;;;;;1.45;1.10;;;;;;;18.28;56.96;94562.91;5024178;28;20695;-75
2022/09/18 08:54:42;;;;;;;0.80;0.80;;;;;;;18.25;56.82;94571.44;5058872;28;20194;-76
2022/09/18 08:57:41;;;;;;;1.55;0.90;;;;;;;18.24;55.26;94579.72;5046247;28;20689;-75
2022/09/18 09:00:21;;;;;;;2.72;1.65;;;;;;;18.03;55.37;94597.53;5044157;28;20194;-75
2022/09/18 09:02:49;;;;;;;3.03;2.42;;;;;;;17.73;55.70;94606.22;5058107;28;20178;-76
2022/09/18 09:05:22;;;;;;;5.38;3.38;;;;;;;17.38;55.64;94595.41;5057146;28;20681;-76
2022/09/18 09:08:21;;;;;;;1.90;1.70;;;;;;;17.05;57.72;94594.69;5053778;28;20653;-75
2022/09/18 09:11:03;;;;;;;3.13;1.85;;;;;;;17.11;58.48;94595.53;5054023;28;20194;-75
2022/09/18 09:13:59;;;;;;;1.88;1.67;;;;;;;16.89;56.53;94590.34;5059592;28;20222;-75
2022/09/18 09:16:27;;;;;;;2.17;1.60;;;;;;;17.16;57.47;94608.84;5058113;28;20179;-75
2022/09/18 09:19:01;;;;;;;1.58;1.23;;;;;;;17.05;55.22;94615.16;5068600;28;20189;-76
2022/09/18 09:22:04;;;;;;;2.28;1.20;;;;;;;16.85;55.44;94613.19;5062177;28;20222;-76
2022/09/18 09:24:41;;;;;;;1.70;1.55;;;;;;;16.60;56.92;94605.81;5056859;28;20177;-76
2022/09/18 09:27:16;;;;;;;3.17;1.30;;;;;;;16.26;57.66;94612.41;5042590;28;20178;-75
2022/09/18 09:29:44;;;;;;;3.30;1.40;;;;;;;15.93;58.23;94574.38;5066077;28;20206;-73
2022/09/18 09:32:24;;;;;;;3.57;1.60;;;;;;;15.92;57.32;94620.56;5067254;28;20245;-74
2022/09/18 09:35:00;;;;;;;7.47;3.33;;;;;;;15.79;59.44;94623.59;5062636;28;20609;-76
2022/09/18 09:37:40;;;;;;;1.70;1.60;;;;;;;15.83;59.69;94630.81;5068468;28;20182;-75
2022/09/18 09:40:15;;;;;;;3.73;2.10;;;;;;;15.64;59.74;94610.16;5059740;28;20209;-75
2022/09/18 09:42:50;;;;;;;3.03;1.63;;;;;;;15.81;59.02;94634.78;5055824;28;20709;-76
2022/09/18 09:45:25;;;;;;;1.57;1.20;;;;;;;15.49;59.50;94616.03;5063718;28;20665;-76
2022/09/18 09:48:13;;;;;;;2.73;1.27;;;;;;;15.67;60.41;94649.47;5044263;28;20708;-76
2022/09/18 09:51:03;;;;;;;3.47;1.60;;;;;;;15.78;61.08;94645.88;5051894;28;20183;-76
2022/09/18 09:53:28;;;;;;;3.03;2.10;;;;;;;15.86;60.32;94642.78;5065329;28;20625;-76
2022/09/18 09:56:06;;;;;;;2.30;2.03;;;;;;;15.84;60.91;94652.84;5065153;28;20187;-77
2022/09/18 09:58:51;;;;;;;6.20;2.90;;;;;;;15.90;59.91;94646.56;5066780;28;20173;-75
2022/09/18 10:01:39;;;;;;;2.10;1.90;;;;;;;15.98;59.12;94655.94;5054253;28;20170;-77
2022/09/18 10:04:21;;;;;;;3.13;2.30;;;;;;;15.78;59.88;94628.13;5054241;28;20175;-77
2022/09/18 10:07:13;;;;;;;2.40;2.20;;;;;;;15.91;60.53;94658.81;5074020;28;20185;-77
2022/09/18 10:09:52;;;;;;;5.27;2.13;;;;;;;15.83;60.29;94662.66;5053013;28;20256;-76
2022/09/18 10:12:28;;;;;;;3.83;2.30;;;;;;;15.77;60.47;94645.09;5053191;28;20174;-77
2022/09/18 10:15:00;;;;;;;3.13;2.70;;;;;;;15.66;60.18;94646.00;5049343;28;21209;-77
2022/09/18 10:17:37;;;;;;;3.97;2.77;;;;;;;15.72;59.80;94663.63;5041841;28;20203;-77
2022/09/18 10:20:04;;;;;;;4.63;3.40;;;;;;;15.62;61.95;94670.63;5056828;28;20183;-77
2022/09/18 10:22:30;;;;;;;6.80;3.88;;;;;;;15.61;61.52;94661.06;5057198;28;20183;-77
2022/09/18 10:25:02;;;;;;;4.67;2.73;;;;;;;15.84;61.21;94679.41;5040423;28;20182;-77
2022/09/18 10:27:27;;;;;;;2.67;2.30;;;;;;;15.89;60.83;94679.47;5062376;28;20265;-77
2022/09/18 10:29:53;;;;;;;3.90;2.40;;;;;;;15.97;61.13;94671.06;5058937;28;20289;-76
2022/09/18 10:32:36;;;;;;;2.50;2.30;;;;;;;15.91;60.04;94648.19;5066118;28;20174;-77
2022/09/18 10:35:24;;;;;;;2.37;2.17;;;;;;;16.17;59.77;94686.44;5066126;28;20186;-76
2022/09/18 10:37:49;;;;;;;4.13;2.90;;;;;;;16.16;59.28;94682.97;5068929;28;20196;-76
2022/09/18 10:40:38;;;;;;;3.53;3.22;;;;;;;16.29;60.93;94680.97;5066014;28;20252;-76
2022/09/18 10:43:06;;;;;;;2.80;2.60;;;;;;;16.42;60.78;94654.81;5063063;28;20242;-77
2022/09/18 10:45:40;;;;;;;3.38;2.97;;;;;;;16.76;60.97;94662.56;5062244;28;20275;-76
2022/09/18 10:48:26;;;;;;;3.15;2.40;;;;;;;17.15;60.47;94689.72;5066854;28;20541;-77
2022/09/18 10:50:56;;;;;;;3.25;2.45;;;;;;;17.00;56.53;94697.59;5049579;28;20193;-76
2022/09/18 10:53:30;;;;;;;3.83;2.50;;;;;;;16.74;56.81;94697.38;5069391;28;20189;-76
2022/09/18 10:56:13;;;;;;;2.67;2.47;;;;;;;16.35;57.29;94693.22;5072279;28;20856;-77
2022/09/18 10:58:39;;;;;;;3.75;3.20;;;;;;;16.17;58.54;94691.75;5067463;28;20170;-76
2022/09/18 11:01:07;;;;;;;3.30;3.00;;;;;;;16.19;58.93;94697.59;5060401;28;20637;-76
2022/09/18 11:03:36;;;;;;;3.47;2.97;;;;;;;16.10;58.69;94699.88;5052659;28;20187;-77
2022/09/18 11:06:06;;;;;;;6.60;4.40;;;;;;;16.00;59.36;94697.09;5057093;28;20549;-76
2022/09/18 11:08:44;;;;;;;4.23;3.70;;;;;;;15.87;59.13;94675.47;5060591;28;20202;-78
2022/09/18 11:11:22;;;;;;;6.03;3.53;;;;;;;16.04;59.08;94713.34;5043040;28;20553;-76
2022/09/18 11:13:55;;;;;;;6.63;3.47;;;;;;;15.62;56.82;94690.03;5052919;28;20163;-77
2022/09/18 11:16:24;;;;;;;2.83;2.63;;;;;;;15.06;59.82;94683.91;5068887;28;20198;-77
2022/09/18 11:19:06;;;;;;;2.90;2.70;;;;;;;14.79;59.88;94676.88;5059967;28;20260;-77
2022/09/18 11:21:40;;;;;;;4.03;2.70;;;;;;;14.90;60.96;94682.06;5048735;28;20193;-77
2022/09/18 11:24:28;;;;;;;3.77;2.80;;;;;;;14.86;61.66;94690.75;5049243;28;20202;-77
2022/09/18 11:26:56;;;;;;;1.93;1.73;;;;;;;14.61;61.55;94628.38;5049973;28;20179;-77
2022/09/18 11:29:38;;;;;;;2.27;2.03;;;;;;;15.26;60.68;94696.66;5048106;28;20206;-75
2022/09/18 11:32:17;;;;;;;4.83;2.30;;;;;;;15.41;59.30;94709.31;5046717;28;20248;-77
2022/09/18 11:34:51;;;;;;;1.90;1.77;;;;;;;15.55;57.79;94704.53;5059296;28;20268;-76
2022/09/18 11:37:53;;;;;;;2.90;2.10;;;;;;;15.61;59.16;94701.69;5065683;28;20191;-76
2022/09/18 11:40:44;;;;;;;3.33;2.10;;;;;;;15.60;58.48;94701.91;5018138;28;20197;-76
2022/09/18 11:43:15;;;;;;;2.30;2.10;;;;;;;15.68;59.07;94706.81;5062805;28;20230;-76
2022/09/18 11:45:46;;;;;;;3.57;2.23;;;;;;;15.57;58.87;94708.50;5066507;28;20210;-76
2022/09/18 11:48:43;;;;;;;2.67;2.03;;;;;;;15.31;59.30;94678.16;5062871;28;20253;-76
2022/09/18 11:51:27;;;;;;;3.43;1.67;;;;;;;15.46;59.56;94710.22;5062738;28;20681;-76
2022/09/18 11:54:03;;;;;;;2.13;1.93;;;;;;;15.36;60.14;94711.91;5065962;28;20180;-76